sensor_id;sensor_type;location;lat;lon;timestamp;pressure;altitude;pressure_sealevel;temperature;humidity
24788;BME280;12883;52.662;5.196;2023-03-04T00:02:12;102771.63;;;7.64;100.00
24788;BME280;12883;52.662;5.196;2023-03-04T00:04:37;102761.22;;;7.62;100.00
24788;BME280;12883;52.662;5.196;2023-03-04T00:07:02;102766.22;;;7.65;100.00
24788;BME280;12883;52.662;5.196;2023-03-04T00:09:28;102767.06;;;7.66;100.00
24788;BME280;12883;52.662;5.196;2023-03-04T00:11:53;102757.59;;;7.63;100.00
24788;BME280;12883;52.662;5.196;2023-03-04T00:14:19;102766.22;;;7.65;100.00
24788;BME280;12883;52.662;5.196;2023-03-04T00:16:44;102767.88;;;7.66;100.00
24788;BME280;12883;52.662;5.196;2023-03-04T00:19:10;102761.66;;;7.67;100.00
24788;BME280;12883;52.662;5.196;2023-03-04T00:21:35;102768.63;;;7.68;100.00
24788;BME280;12883;52.662;5.196;2023-03-04T00:24:00;102764.31;;;7.67;100.00
24788;BME280;12883;52.662;5.196;2023-03-04T00:26:26;102761.34;;;7.61;100.00
24788;BME280;12883;52.662;5.196;2023-03-04T00:28:51;102759.78;;;7.58;100.00
24788;BME280;12883;52.662;5.196;2023-03-04T00:31:17;102752.53;;;7.51;100.00
24788;BME280;12883;52.662;5.196;2023-03-04T00:33:42;102750.31;;;7.56;100.00
24788;BME280;12883;52.662;5.196;2023-03-04T00:36:08;102744.47;;;7.52;100.00
24788;BME280;12883;52.662;5.196;2023-03-04T00:38:34;102745.44;;;7.51;100.00
24788;BME280;12883;52.662;5.196;2023-03-04T00:40:59;102728.38;;;7.55;100.00
24788;BME280;12883;52.662;5.196;2023-03-04T00:43:25;102749.22;;;7.58;100.00
24788;BME280;12883;52.662;5.196;2023-03-04T00:45:50;102751.63;;;7.61;100.00
24788;BME280;12883;52.662;5.196;2023-03-04T00:48:16;102755.94;;;7.62;100.00
24788;BME280;12883;52.662;5.196;2023-03-04T00:50:42;102754.25;;;7.61;100.00
24788;BME280;12883;52.662;5.196;2023-03-04T00:53:08;102752.56;;;7.60;100.00
24788;BME280;12883;52.662;5.196;2023-03-04T00:55:33;102754.25;;;7.61;100.00
24788;BME280;12883;52.662;5.196;2023-03-04T00:57:59;102763.69;;;7.54;100.00
24788;BME280;12883;52.662;5.196;2023-03-04T01:00:24;102755.31;;;7.49;100.00
24788;BME280;12883;52.662;5.196;2023-03-04T01:02:49;102760.59;;;7.49;100.00
24788;BME280;12883;52.662;5.196;2023-03-04T01:05:15;102723.47;;;7.21;100.00
24788;BME280;12883;52.662;5.196;2023-03-04T01:07:40;102765.88;;;7.49;100.00
24788;BME280;12883;52.662;5.196;2023-03-04T01:10:07;102760.88;;;7.56;100.00
24788;BME280;12883;52.662;5.196;2023-03-04T01:12:33;102758.13;;;7.57;100.00
24788;BME280;12883;52.662;5.196;2023-03-04T01:14:58;102771.44;;;7.56;100.00
24788;BME280;12883;52.662;5.196;2023-03-04T01:17:24;102761.16;;;7.53;100.00
24788;BME280;12883;52.662;5.196;2023-03-04T01:19:49;102770.31;;;7.49;100.00
24788;BME280;12883;52.662;5.196;2023-03-04T01:22:15;102762.53;;;7.47;100.00
24788;BME280;12883;52.662;5.196;2023-03-04T01:24:43;102748.09;;;7.51;100.00
24788;BME280;12883;52.662;5.196;2023-03-04T01:27:08;102750.03;;;7.49;100.00
24788;BME280;12883;52.662;5.196;2023-03-04T01:29:33;102748.09;;;7.51;100.00
24788;BME280;12883;52.662;5.196;2023-03-04T01:31:58;102744.47;;;7.52;100.00
24788;BME280;12883;52.662;5.196;2023-03-04T01:34:24;102748.66;;;7.55;100.00
24788;BME280;12883;52.662;5.196;2023-03-04T01:36:49;102753.13;;;7.54;100.00
24788;BME280;12883;52.662;5.196;2023-03-04T01:39:14;102733.22;;;7.50;100.00
24788;BME280;12883;52.662;5.196;2023-03-04T01:41:40;102737.00;;;7.57;100.00
24788;BME280;12883;52.662;5.196;2023-03-04T01:44:05;102736.41;;;7.54;100.00
24788;BME280;12883;52.662;5.196;2023-03-04T01:46:31;102733.09;;;7.52;100.00
24788;BME280;12883;52.662;5.196;2023-03-04T01:48:57;102729.19;;;7.56;100.00
24788;BME280;12883;52.662;5.196;2023-03-04T01:51:22;102733.50;;;7.57;100.00
24788;BME280;12883;52.662;5.196;2023-03-04T01:53:49;102731.44;;;7.60;100.00
24788;BME280;12883;52.662;5.196;2023-03-04T01:59:12;102722.81;;;7.58;100.00
24788;BME280;12883;52.662;5.196;2023-03-04T02:01:39;102718.78;;;7.54;100.00
24788;BME280;12883;52.662;5.196;2023-03-04T02:04:06;102698.88;;;7.50;100.00
24788;BME280;12883;52.662;5.196;2023-03-04T02:06:33;102706.72;;;7.61;100.00
24788;BME280;12883;52.662;5.196;2023-03-04T02:08:58;102715.84;;;7.57;100.00
24788;BME280;12883;52.662;5.196;2023-03-04T02:11:24;102715.28;;;7.54;100.00
24788;BME280;12883;52.662;5.196;2023-03-04T02:13:50;102711.53;;;7.56;100.00
24788;BME280;12883;52.662;5.196;2023-03-04T02:16:16;102702.53;;;7.59;100.00
24788;BME280;12883;52.662;5.196;2023-03-04T02:18:42;102720.00;;;7.50;100.00
24788;BME280;12883;52.662;5.196;2023-03-04T02:21:16;102711.53;;;7.56;100.00
24788;BME280;12883;52.662;5.196;2023-03-04T02:26:32;102718.56;;;7.46;100.00
24788;BME280;12883;52.662;5.196;2023-03-04T02:28:59;102706.34;;;7.45;100.00
24788;BME280;12883;52.662;5.196;2023-03-04T02:34:09;102696.22;;;7.50;100.00
24788;BME280;12883;52.662;5.196;2023-03-04T02:36:35;102699.72;;;7.51;100.00
24788;BME280;12883;52.662;5.196;2023-03-04T02:39:10;102689.84;;;7.53;100.00
24788;BME280;12883;52.662;5.196;2023-03-04T02:41:36;102678.31;;;7.54;100.00
24788;BME280;12883;52.662;5.196;2023-03-04T02:44:02;102673.44;;;7.49;100.00
24788;BME280;12883;52.662;5.196;2023-03-04T02:46:27;102679.94;;;7.45;100.00
24788;BME280;12883;52.662;5.196;2023-03-04T02:48:53;102670.66;;;7.51;100.00
24788;BME280;12883;52.662;5.196;2023-03-04T02:51:18;102672.34;;;7.52;100.00
24788;BME280;12883;52.662;5.196;2023-03-04T02:53:44;102676.06;;;7.49;100.00
24788;BME280;12883;52.662;5.196;2023-03-04T02:56:09;102670.63;;;7.41;100.00
24788;BME280;12883;52.662;5.196;2023-03-04T02:58:34;102664.38;;;7.42;100.00
24788;BME280;12883;52.662;5.196;2023-03-04T03:01:00;102618.84;;;7.20;100.00
24788;BME280;12883;52.662;5.196;2023-03-04T03:03:25;102656.91;;;7.47;100.00
24788;BME280;12883;52.662;5.196;2023-03-04T03:05:52;102661.44;;;7.45;100.00
24788;BME280;12883;52.662;5.196;2023-03-04T03:08:18;102656.03;;;7.47;100.00
24788;BME280;12883;52.662;5.196;2023-03-04T03:10:43;102657.44;;;7.41;100.00
24788;BME280;12883;52.662;5.196;2023-03-04T03:13:08;102659.22;;;7.41;100.00
24788;BME280;12883;52.662;5.196;2023-03-04T03:15:34;102662.56;;;7.43;100.00
24788;BME280;12883;52.662;5.196;2023-03-04T03:17:59;102653.69;;;7.44;100.00
24788;BME280;12883;52.662;5.196;2023-03-04T03:20:25;102657.16;;;7.44;100.00
24788;BME280;12883;52.662;5.196;2023-03-04T03:22:50;102639.91;;;7.40;100.00
24788;BME280;12883;52.662;5.196;2023-03-04T03:25:16;102655.19;;;7.46;100.00
24788;BME280;12883;52.662;5.196;2023-03-04T03:27:42;102611.94;;;7.28;100.00
24788;BME280;12883;52.662;5.196;2023-03-04T03:30:09;102643.81;;;7.46;100.00
24788;BME280;12883;52.662;5.196;2023-03-04T03:32:35;102643.69;;;7.47;100.00
24788;BME280;12883;52.662;5.196;2023-03-04T03:35:00;102636.00;;;7.44;100.00
24788;BME280;12883;52.662;5.196;2023-03-04T03:37:26;102639.63;;;7.43;100.00
24788;BME280;12883;52.662;5.196;2023-03-04T03:39:51;102639.91;;;7.50;100.00
24788;BME280;12883;52.662;5.196;2023-03-04T03:42:16;102642.41;;;7.42;100.00
24788;BME280;12883;52.662;5.196;2023-03-04T03:44:42;102638.38;;;7.38;100.00
24788;BME280;12883;52.662;5.196;2023-03-04T03:47:07;102616.53;;;7.26;100.00
24788;BME280;12883;52.662;5.196;2023-03-04T03:49:32;102632.41;;;7.45;100.00
24788;BME280;12883;52.662;5.196;2023-03-04T03:51:58;102640.75;;;7.50;100.00
24788;BME280;12883;52.662;5.196;2023-03-04T03:54:23;102634.91;;;7.47;100.00
24788;BME280;12883;52.662;5.196;2023-03-04T03:56:48;102640.06;;;7.48;100.00
24788;BME280;12883;52.662;5.196;2023-03-04T03:59:14;102640.06;;;7.48;100.00
24788;BME280;12883;52.662;5.196;2023-03-04T04:01:39;102626.13;;;7.37;100.00
24788;BME280;12883;52.662;5.196;2023-03-04T04:04:04;102638.13;;;7.50;100.00
24788;BME280;12883;52.662;5.196;2023-03-04T04:06:30;102636.59;;;7.48;100.00
24788;BME280;12883;52.662;5.196;2023-03-04T04:08:55;102608.47;;;7.37;100.00
24788;BME280;12883;52.662;5.196;2023-03-04T04:11:21;102637.59;;;7.56;100.00
24788;BME280;12883;52.662;5.196;2023-03-04T04:13:46;102630.19;;;7.50;100.00
24788;BME280;12883;52.662;5.196;2023-03-04T04:16:11;102631.75;;;7.53;100.00
24788;BME280;12883;52.662;5.196;2023-03-04T04:18:37;102627.44;;;7.52;100.00
24788;BME280;12883;52.662;5.196;2023-03-04T04:21:03;102625.75;;;7.51;100.00
24788;BME280;12883;52.662;5.196;2023-03-04T04:23:29;102628.00;;;7.55;100.00
24788;BME280;12883;52.662;5.196;2023-03-04T04:25:55;102620.59;;;7.49;100.00
24788;BME280;12883;52.662;5.196;2023-03-04T04:28:21;102622.41;;;7.49;100.00
24788;BME280;12883;52.662;5.196;2023-03-04T04:30:46;102617.97;;;7.49;100.00
24788;BME280;12883;52.662;5.196;2023-03-04T04:33:12;102623.84;;;7.62;100.00
24788;BME280;12883;52.662;5.196;2023-03-04T04:35:37;102624.94;;;7.60;100.00
24788;BME280;12883;52.662;5.196;2023-03-04T04:38:04;102625.47;;;7.54;100.00
24788;BME280;12883;52.662;5.196;2023-03-04T04:40:29;102609.06;;;7.50;100.00
24788;BME280;12883;52.662;5.196;2023-03-04T04:42:54;102622.31;;;7.60;100.00
24788;BME280;12883;52.662;5.196;2023-03-04T04:45:21;102623.28;;;7.59;100.00
24788;BME280;12883;52.662;5.196;2023-03-04T04:47:49;102620.22;;;7.63;100.00
24788;BME280;12883;52.662;5.196;2023-03-04T04:50:14;102626.50;;;7.62;100.00
24788;BME280;12883;52.662;5.196;2023-03-04T04:52:40;102624.41;;;7.66;100.00
24788;BME280;12883;52.662;5.196;2023-03-04T04:55:06;102616.91;;;7.61;100.00
24788;BME280;12883;52.662;5.196;2023-03-04T04:57:32;102623.84;;;7.62;100.00
24788;BME280;12883;52.662;5.196;2023-03-04T04:59:57;102582.63;;;7.41;100.00
24788;BME280;12883;52.662;5.196;2023-03-04T05:02:23;102619.94;;;7.66;100.00
24788;BME280;12883;52.662;5.196;2023-03-04T05:04:48;102628.84;;;7.65;100.00
24788;BME280;12883;52.662;5.196;2023-03-04T05:07:13;102628.44;;;7.70;100.00
24788;BME280;12883;52.662;5.196;2023-03-04T05:09:39;102618.69;;;7.61;100.00
24788;BME280;12883;52.662;5.196;2023-03-04T05:12:04;102626.34;;;7.73;100.00
24788;BME280;12883;52.662;5.196;2023-03-04T05:14:29;102630.38;;;7.68;100.00
24788;BME280;12883;52.662;5.196;2023-03-04T05:16:55;102618.69;;;7.61;100.00
24788;BME280;12883;52.662;5.196;2023-03-04T05:19:20;102629.38;;;7.59;100.00
24788;BME280;12883;52.662;5.196;2023-03-04T05:21:46;102616.34;;;7.58;100.00
24788;BME280;12883;52.662;5.196;2023-03-04T05:24:11;102624.09;;;7.59;100.00
24788;BME280;12883;52.662;5.196;2023-03-04T05:26:37;102625.75;;;7.60;100.00
24788;BME280;12883;52.662;5.196;2023-03-04T05:29:03;102623.25;;;7.49;100.00
24788;BME280;12883;52.662;5.196;2023-03-04T05:31:28;102623.13;;;7.51;100.00
24788;BME280;12883;52.662;5.196;2023-03-04T05:33:53;102618.53;;;7.53;100.00
24788;BME280;12883;52.662;5.196;2023-03-04T05:36:19;102624.22;;;7.48;100.00
24788;BME280;12883;52.662;5.196;2023-03-04T05:38:44;102634.25;;;7.54;100.00
24788;BME280;12883;52.662;5.196;2023-03-04T05:41:10;102608.38;;;7.48;100.00
24788;BME280;12883;52.662;5.196;2023-03-04T05:43:35;102611.81;;;7.39;100.00
24788;BME280;12883;52.662;5.196;2023-03-04T05:46:02;102626.59;;;7.51;100.00
24788;BME280;12883;52.662;5.196;2023-03-04T05:48:27;102612.94;;;7.46;100.00
24788;BME280;12883;52.662;5.196;2023-03-04T05:50:58;102626.88;;;7.48;100.00
24788;BME280;12883;52.662;5.196;2023-03-04T05:53:24;102589.84;;;7.29;100.00
24788;BME280;12883;52.662;5.196;2023-03-04T05:55:50;102621.84;;;7.45;100.00
24788;BME280;12883;52.662;5.196;2023-03-04T05:58:16;102620.03;;;7.46;100.00
24788;BME280;12883;52.662;5.196;2023-03-04T06:00:42;102564.75;;;7.05;100.00
24788;BME280;12883;52.662;5.196;2023-03-04T06:03:13;102611.13;;;7.37;100.00
24788;BME280;12883;52.662;5.196;2023-03-04T06:05:39;102612.09;;;7.36;100.00
24788;BME280;12883;52.662;5.196;2023-03-04T06:08:04;102609.97;;;7.30;100.00
24788;BME280;12883;52.662;5.196;2023-03-04T06:10:30;102612.59;;;7.21;100.00
24788;BME280;12883;52.662;5.196;2023-03-04T06:12:55;102614.56;;;7.28;100.00
24788;BME280;12883;52.662;5.196;2023-03-04T06:15:20;102614.03;;;7.34;100.00
24788;BME280;12883;52.662;5.196;2023-03-04T06:17:46;102613.47;;;7.31;100.00
24788;BME280;12883;52.662;5.196;2023-03-04T06:20:11;102610.84;;;7.31;100.00
24788;BME280;12883;52.662;5.196;2023-03-04T06:22:37;102613.75;;;7.37;100.00
24788;BME280;12883;52.662;5.196;2023-03-04T06:25:03;102612.06;;;7.27;100.00
24788;BME280;12883;52.662;5.196;2023-03-04T06:27:28;102629.16;;;7.32;100.00
24788;BME280;12883;52.662;5.196;2023-03-04T06:29:54;102623.63;;;7.35;100.00
24788;BME280;12883;52.662;5.196;2023-03-04T06:32:19;102613.00;;;7.16;100.00
24788;BME280;12883;52.662;5.196;2023-03-04T06:34:44;102624.25;;;7.18;100.00
24788;BME280;12883;52.662;5.196;2023-03-04T06:37:10;102622.28;;;7.11;100.00
24788;BME280;12883;52.662;5.196;2023-03-04T06:39:35;102606.03;;;7.15;100.00
24788;BME280;12883;52.662;5.196;2023-03-04T06:42:01;102607.81;;;7.05;100.00
24788;BME280;12883;52.662;5.196;2023-03-04T06:44:26;102619.88;;;7.08;100.00
24788;BME280;12883;52.662;5.196;2023-03-04T06:46:51;102612.94;;;7.07;100.00
24788;BME280;12883;52.662;5.196;2023-03-04T06:49:17;102622.00;;;7.14;100.00
24788;BME280;12883;52.662;5.196;2023-03-04T06:51:42;102622.84;;;7.14;100.00
24788;BME280;12883;52.662;5.196;2023-03-04T06:54:09;102619.53;;;7.22;100.00
24788;BME280;12883;52.662;5.196;2023-03-04T06:56:34;102626.19;;;7.16;100.00
24788;BME280;12883;52.662;5.196;2023-03-04T06:59:00;102623.66;;;7.05;100.00
24788;BME280;12883;52.662;5.196;2023-03-04T07:01:27;102626.13;;;7.07;100.00
24788;BME280;12883;52.662;5.196;2023-03-04T07:03:53;102626.06;;;7.18;100.00
24788;BME280;12883;52.662;5.196;2023-03-04T07:06:21;102625.94;;;7.19;100.00
24788;BME280;12883;52.662;5.196;2023-03-04T07:08:47;102626.06;;;7.18;100.00
24788;BME280;12883;52.662;5.196;2023-03-04T07:11:13;102629.72;;;7.26;100.00
24788;BME280;12883;52.662;5.196;2023-03-04T07:13:38;102629.00;;;7.24;100.00
24788;BME280;12883;52.662;5.196;2023-03-04T07:16:06;102632.06;;;7.29;100.00
24788;BME280;12883;52.662;5.196;2023-03-04T07:18:31;102627.81;;;7.38;100.00
24788;BME280;12883;52.662;5.196;2023-03-04T07:20:57;102626.97;;;7.37;100.00
24788;BME280;12883;52.662;5.196;2023-03-04T07:23:22;102579.53;;;7.17;100.00
24788;BME280;12883;52.662;5.196;2023-03-04T07:25:48;102633.53;;;7.52;100.00
24788;BME280;12883;52.662;5.196;2023-03-04T07:28:15;102649.13;;;7.55;100.00
24788;BME280;12883;52.662;5.196;2023-03-04T07:30:40;102632.59;;;7.63;100.00
24788;BME280;12883;52.662;5.196;2023-03-04T07:33:05;102631.88;;;7.51;100.00
24788;BME280;12883;52.662;5.196;2023-03-04T07:35:31;102628.97;;;7.54;100.00
24788;BME280;12883;52.662;5.196;2023-03-04T07:37:56;102636.63;;;7.57;100.00
24788;BME280;12883;52.662;5.196;2023-03-04T07:40:21;102636.66;;;7.67;100.00
24788;BME280;12883;52.662;5.196;2023-03-04T07:42:51;102639.97;;;7.69;100.00
24788;BME280;12883;52.662;5.196;2023-03-04T07:45:16;102638.63;;;7.74;100.00
24788;BME280;12883;52.662;5.196;2023-03-04T07:47:41;102630.22;;;7.60;100.00
24788;BME280;12883;52.662;5.196;2023-03-04T07:50:08;102643.63;;;7.77;100.00
24788;BME280;12883;52.662;5.196;2023-03-04T07:52:37;102638.59;;;7.65;100.00
24788;BME280;12883;52.662;5.196;2023-03-04T07:55:03;102642.22;;;7.83;100.00
24788;BME280;12883;52.662;5.196;2023-03-04T07:57:29;102642.78;;;7.86;100.00
24788;BME280;12883;52.662;5.196;2023-03-04T07:59:54;102656.00;;;7.86;100.00
24788;BME280;12883;52.662;5.196;2023-03-04T08:02:20;102642.38;;;7.91;100.00
24788;BME280;12883;52.662;5.196;2023-03-04T08:04:45;102651.03;;;8.02;100.00
24788;BME280;12883;52.662;5.196;2023-03-04T08:07:11;102649.50;;;8.00;100.00
24788;BME280;12883;52.662;5.196;2023-03-04T08:09:36;102646.16;;;8.07;100.00
24788;BME280;12883;52.662;5.196;2023-03-04T08:12:01;102642.97;;;8.13;100.00
24788;BME280;12883;52.662;5.196;2023-03-04T08:14:27;102646.63;;;8.22;100.00
24788;BME280;12883;52.662;5.196;2023-03-04T08:16:52;102645.66;;;8.23;100.00
24788;BME280;12883;52.662;5.196;2023-03-04T08:19:17;102648.97;;;8.25;100.00
24788;BME280;12883;52.662;5.196;2023-03-04T08:21:43;102645.66;;;8.23;100.00
24788;BME280;12883;52.662;5.196;2023-03-04T08:24:09;102646.75;;;8.30;100.00
24788;BME280;12883;52.662;5.196;2023-03-04T08:26:41;102643.28;;;8.29;100.00
24788;BME280;12883;52.662;5.196;2023-03-04T08:29:09;102647.19;;;8.35;100.00
24788;BME280;12883;52.662;5.196;2023-03-04T08:31:34;102642.28;;;8.40;100.00
24788;BME280;12883;52.662;5.196;2023-03-04T08:34:02;102641.03;;;8.44;100.00
24788;BME280;12883;52.662;5.196;2023-03-04T08:36:27;102647.31;;;8.52;100.00
24788;BME280;12883;52.662;5.196;2023-03-04T08:38:53;102633.09;;;8.53;100.00
24788;BME280;12883;52.662;5.196;2023-03-04T08:41:18;102638.41;;;8.53;100.00
24788;BME280;12883;52.662;5.196;2023-03-04T08:43:44;102638.09;;;8.56;100.00
24788;BME280;12883;52.662;5.196;2023-03-04T08:46:09;102638.66;;;8.60;100.00
24788;BME280;12883;52.662;5.196;2023-03-04T08:48:35;102641.16;;;8.61;100.00
24788;BME280;12883;52.662;5.196;2023-03-04T08:51:06;102634.88;;;8.62;100.00
24788;BME280;12883;52.662;5.196;2023-03-04T08:53:31;102630.31;;;8.64;100.00
24788;BME280;12883;52.662;5.196;2023-03-04T08:55:56;102631.97;;;8.65;100.00
24788;BME280;12883;52.662;5.196;2023-03-04T08:58:22;102642.81;;;8.72;100.00
24788;BME280;12883;52.662;5.196;2023-03-04T09:00:48;102648.66;;;8.75;100.00
24788;BME280;12883;52.662;5.196;2023-03-04T09:03:14;102645.59;;;8.80;100.00
24788;BME280;12883;52.662;5.196;2023-03-04T09:05:40;102635.53;;;8.83;100.00
24788;BME280;12883;52.662;5.196;2023-03-04T09:08:06;102641.13;;;8.80;100.00
24788;BME280;12883;52.662;5.196;2023-03-04T09:10:32;102640.84;;;8.83;100.00
24788;BME280;12883;52.662;5.196;2023-03-04T09:12:57;102640.03;;;8.83;100.00
24788;BME280;12883;52.662;5.196;2023-03-04T09:15:23;102643.19;;;8.96;100.00
24788;BME280;12883;52.662;5.196;2023-03-04T09:17:48;102637.72;;;8.97;100.00
24788;BME280;12883;52.662;5.196;2023-03-04T09:20:14;102638.81;;;9.04;100.00
24788;BME280;12883;52.662;5.196;2023-03-04T09:22:40;102652.50;;;9.00;100.00
24788;BME280;12883;52.662;5.196;2023-03-04T09:25:06;102634.63;;;9.11;100.00
24788;BME280;12883;52.662;5.196;2023-03-04T09:27:32;102632.63;;;9.23;100.00
24788;BME280;12883;52.662;5.196;2023-03-04T09:29:57;102629.84;;;9.24;100.00
24788;BME280;12883;52.662;5.196;2023-03-04T09:32:23;102634.25;;;9.33;100.00
24788;BME280;12883;52.662;5.196;2023-03-04T09:34:48;102639.81;;;9.40;100.00
24788;BME280;12883;52.662;5.196;2023-03-04T09:37:13;102633.09;;;9.45;100.00
24788;BME280;12883;52.662;5.196;2023-03-04T09:39:39;102637.16;;;9.40;100.00
24788;BME280;12883;52.662;5.196;2023-03-04T09:42:06;102635.63;;;9.37;100.00
24788;BME280;12883;52.662;5.196;2023-03-04T09:44:36;102643.97;;;9.42;100.00
24788;BME280;12883;52.662;5.196;2023-03-04T09:47:11;102647.06;;;9.38;100.00
24788;BME280;12883;52.662;5.196;2023-03-04T09:49:40;102654.53;;;9.25;100.00
24788;BME280;12883;52.662;5.196;2023-03-04T09:55:24;102648.72;;;9.02;100.00
24788;BME280;12883;52.662;5.196;2023-03-04T10:00:55;102646.63;;;9.06;100.00
24788;BME280;12883;52.662;5.196;2023-03-04T10:03:24;102642.00;;;9.17;100.00
24788;BME280;12883;52.662;5.196;2023-03-04T10:06:00;102634.63;;;9.11;100.00
24788;BME280;12883;52.662;5.196;2023-03-04T10:11:39;102630.44;;;9.09;100.00
24788;BME280;12883;52.662;5.196;2023-03-04T10:17:23;102624.34;;;9.35;100.00
24788;BME280;12883;52.662;5.196;2023-03-04T10:20:13;102624.19;;;9.37;100.00
24788;BME280;12883;52.662;5.196;2023-03-04T10:22:48;102623.19;;;9.47;100.00
24788;BME280;12883;52.662;5.196;2023-03-04T10:25:20;102624.84;;;9.48;100.00
24788;BME280;12883;52.662;5.196;2023-03-04T10:27:53;102634.16;;;9.52;100.00
24788;BME280;12883;52.662;5.196;2023-03-04T10:33:12;102633.28;;;9.61;100.00
24788;BME280;12883;52.662;5.196;2023-03-04T10:35:39;102642.59;;;9.65;100.00
24788;BME280;12883;52.662;5.196;2023-03-04T10:38:08;102637.16;;;9.66;100.00
24788;BME280;12883;52.662;5.196;2023-03-04T10:40:39;102640.44;;;9.78;100.00
24788;BME280;12883;52.662;5.196;2023-03-04T10:43:04;102645.06;;;9.76;100.00
24788;BME280;12883;52.662;5.196;2023-03-04T10:45:37;102649.66;;;9.74;100.00
24788;BME280;12883;52.662;5.196;2023-03-04T10:48:04;102634.88;;;9.54;100.00
24788;BME280;12883;52.662;5.196;2023-03-04T10:50:29;102648.31;;;9.70;100.00
24788;BME280;12883;52.662;5.196;2023-03-04T10:52:56;102649.22;;;9.78;100.00
24788;BME280;12883;52.662;5.196;2023-03-04T10:55:25;102624.34;;;9.62;100.00
24788;BME280;12883;52.662;5.196;2023-03-04T10:57:54;102645.34;;;9.73;100.00
24788;BME280;12883;52.662;5.196;2023-03-04T11:00:27;102652.06;;;9.67;100.00
24788;BME280;12883;52.662;5.196;2023-03-04T11:05:46;102643.78;;;9.53;100.00
24788;BME280;12883;52.662;5.196;2023-03-04T11:08:21;102641.34;;;9.69;100.00
24788;BME280;12883;52.662;5.196;2023-03-04T11:10:47;102633.66;;;9.66;100.00
24788;BME280;12883;52.662;5.196;2023-03-04T11:13:18;102637.09;;;9.76;100.00
24788;BME280;12883;52.662;5.196;2023-03-04T11:18:16;102637.19;;;9.84;100.00
24788;BME280;12883;52.662;5.196;2023-03-04T11:20:45;102639.75;;;10.03;100.00
24788;BME280;12883;52.662;5.196;2023-03-04T11:25:49;102648.94;;;9.99;100.00
24788;BME280;12883;52.662;5.196;2023-03-04T11:28:23;102646.97;;;10.01;100.00
24788;BME280;12883;52.662;5.196;2023-03-04T11:31:03;102648.19;;;9.89;100.00
24788;BME280;12883;52.662;5.196;2023-03-04T11:36:37;102658.00;;;9.79;100.00
24788;BME280;12883;52.662;5.196;2023-03-04T11:39:18;102634.88;;;9.54;100.00
24788;BME280;12883;52.662;5.196;2023-03-04T11:41:53;102643.00;;;9.70;100.00
24788;BME280;12883;52.662;5.196;2023-03-04T11:44:21;102647.22;;;9.63;100.00
24788;BME280;12883;52.662;5.196;2023-03-04T11:47:09;102640.25;;;9.62;100.00
24788;BME280;12883;52.662;5.196;2023-03-04T11:55:49;102631.50;;;9.79;100.00
24788;BME280;12883;52.662;5.196;2023-03-04T11:58:49;102622.41;;;9.99;100.00
24788;BME280;12883;52.662;5.196;2023-03-04T12:06:18;102637.13;;;9.93;100.00
24788;BME280;12883;52.662;5.196;2023-03-04T12:08:49;102642.22;;;10.04;100.00
24788;BME280;12883;52.662;5.196;2023-03-04T12:11:28;102624.94;;;10.00;100.00
24788;BME280;12883;52.662;5.196;2023-03-04T12:14:07;102635.50;;;10.10;100.00
24788;BME280;12883;52.662;5.196;2023-03-04T12:19:24;102631.06;;;10.01;100.00
24788;BME280;12883;52.662;5.196;2023-03-04T12:22:11;102623.50;;;10.06;100.00
24788;BME280;12883;52.662;5.196;2023-03-04T12:30:19;102626.91;;;10.16;100.00
24788;BME280;12883;52.662;5.196;2023-03-04T12:32:53;102622.78;;;10.13;100.00
24788;BME280;12883;52.662;5.196;2023-03-04T12:40:54;102602.06;;;9.99;100.00
24788;BME280;12883;52.662;5.196;2023-03-04T12:48:40;102603.84;;;9.99;100.00
24788;BME280;12883;52.662;5.196;2023-03-04T12:51:28;102605.09;;;10.04;100.00
24788;BME280;12883;52.662;5.196;2023-03-04T12:56:53;102598.22;;;10.02;100.00
24788;BME280;12883;52.662;5.196;2023-03-04T12:59:22;102591.72;;;9.96;100.00
24788;BME280;12883;52.662;5.196;2023-03-04T13:02:20;102592.25;;;10.00;100.00
24788;BME280;12883;52.662;5.196;2023-03-04T13:09:54;102575.28;;;9.75;100.00
24788;BME280;12883;52.662;5.196;2023-03-04T13:12:23;102586.22;;;9.90;100.00
24788;BME280;12883;52.662;5.196;2023-03-04T13:17:38;102593.78;;;9.85;100.00
24788;BME280;12883;52.662;5.196;2023-03-04T13:35:49;102572.94;;;9.55;100.00
24788;BME280;12883;52.662;5.196;2023-03-04T13:51:24;102553.31;;;9.48;100.00
24788;BME280;12883;52.662;5.196;2023-03-04T13:56:39;102558.78;;;9.64;100.00
24788;BME280;12883;52.662;5.196;2023-03-04T13:59:25;102550.44;;;9.59;100.00
24788;BME280;12883;52.662;5.196;2023-03-04T14:02:10;102556.44;;;9.61;100.00
24788;BME280;12883;52.662;5.196;2023-03-04T14:04:41;102548.56;;;9.69;100.00
24788;BME280;12883;52.662;5.196;2023-03-04T14:10:22;102542.78;;;9.56;100.00
24788;BME280;12883;52.662;5.196;2023-03-04T14:12:58;102541.59;;;9.51;100.00
24788;BME280;12883;52.662;5.196;2023-03-04T14:15:26;102544.47;;;9.57;100.00
24788;BME280;12883;52.662;5.196;2023-03-04T14:17:55;102540.59;;;9.69;100.00
24788;BME280;12883;52.662;5.196;2023-03-04T14:22:49;102540.97;;;9.74;100.00
24788;BME280;12883;52.662;5.196;2023-03-04T14:27:44;102543.63;;;9.74;100.00
24788;BME280;12883;52.662;5.196;2023-03-04T14:32:44;102534.53;;;9.59;100.00
24788;BME280;12883;52.662;5.196;2023-03-04T14:35:27;102523.84;;;9.51;100.00
24788;BME280;12883;52.662;5.196;2023-03-04T14:38:00;102536.44;;;9.66;100.00
24788;BME280;12883;52.662;5.196;2023-03-04T14:40:30;102528.34;;;9.68;100.00
24788;BME280;12883;52.662;5.196;2023-03-04T14:43:01;102520.97;;;9.45;100.00
24788;BME280;12883;52.662;5.196;2023-03-04T14:45:28;102532.72;;;9.42;100.00
24788;BME280;12883;52.662;5.196;2023-03-04T14:47:58;102519.84;;;9.47;100.00
24788;BME280;12883;52.662;5.196;2023-03-04T14:50:27;102512.78;;;9.38;100.00